sensor_id;sensor_type;location;lat;lon;timestamp;P1;durP1;ratioP1;P2;durP2;ratioP2
3257;SDS011;1641;51.306;12.384;2024-03-06T00:00:58;31.20;;;14.20;;
3257;SDS011;1641;51.306;12.384;2024-03-06T00:03:29;26.45;;;13.93;;
3257;SDS011;1641;51.306;12.384;2024-03-06T00:05:54;32.95;;;14.50;;
3257;SDS011;1641;51.306;12.384;2024-03-06T00:08:19;30.40;;;14.20;;
3257;SDS011;1641;51.306;12.384;2024-03-06T00:10:51;28.15;;;13.38;;
3257;SDS011;1641;51.306;12.384;2024-03-06T00:13:17;24.40;;;13.98;;
3257;SDS011;1641;51.306;12.384;2024-03-06T00:15:42;18.88;;;13.25;;
3257;SDS011;1641;51.306;12.384;2024-03-06T00:18:07;27.25;;;14.27;;
3257;SDS011;1641;51.306;12.384;2024-03-06T00:20:45;17.52;;;10.52;;
3257;SDS011;1641;51.306;12.384;2024-03-06T00:23:13;29.63;;;14.13;;
3257;SDS011;1641;51.306;12.384;2024-03-06T00:25:38;23.58;;;13.18;;
3257;SDS011;1641;51.306;12.384;2024-03-06T00:28:13;26.98;;;13.90;;
3257;SDS011;1641;51.306;12.384;2024-03-06T00:30:41;25.65;;;14.10;;
3257;SDS011;1641;51.306;12.384;2024-03-06T00:33:07;22.25;;;13.68;;
3257;SDS011;1641;51.306;12.384;2024-03-06T00:35:32;31.05;;;14.43;;
3257;SDS011;1641;51.306;12.384;2024-03-06T00:37:58;22.58;;;13.45;;
3257;SDS011;1641;51.306;12.384;2024-03-06T00:40:27;20.52;;;13.60;;
3257;SDS011;1641;51.306;12.384;2024-03-06T00:42:52;22.80;;;13.90;;
3257;SDS011;1641;51.306;12.384;2024-03-06T00:45:18;26.63;;;14.13;;
3257;SDS011;1641;51.306;12.384;2024-03-06T00:47:43;28.17;;;15.00;;
3257;SDS011;1641;51.306;12.384;2024-03-06T00:50:08;27.02;;;14.98;;
3257;SDS011;1641;51.306;12.384;2024-03-06T00:52:43;24.27;;;13.75;;
3257;SDS011;1641;51.306;12.384;2024-03-06T00:55:11;31.35;;;14.50;;
3257;SDS011;1641;51.306;12.384;2024-03-06T00:57:37;22.17;;;13.63;;
3257;SDS011;1641;51.306;12.384;2024-03-06T01:00:02;22.67;;;14.35;;
3257;SDS011;1641;51.306;12.384;2024-03-06T01:02:36;24.67;;;13.85;;
3257;SDS011;1641;51.306;12.384;2024-03-06T01:05:02;23.13;;;14.77;;
3257;SDS011;1641;51.306;12.384;2024-03-06T01:07:32;23.95;;;15.27;;
3257;SDS011;1641;51.306;12.384;2024-03-06T01:09:58;25.17;;;15.75;;
3257;SDS011;1641;51.306;12.384;2024-03-06T01:12:23;25.55;;;15.35;;
3257;SDS011;1641;51.306;12.384;2024-03-06T01:14:56;28.48;;;15.90;;
3257;SDS011;1641;51.306;12.384;2024-03-06T01:17:21;29.88;;;15.27;;
3257;SDS011;1641;51.306;12.384;2024-03-06T01:19:47;26.83;;;15.45;;
3257;SDS011;1641;51.306;12.384;2024-03-06T01:22:13;31.05;;;15.25;;
3257;SDS011;1641;51.306;12.384;2024-03-06T01:24:38;23.83;;;15.15;;
3257;SDS011;1641;51.306;12.384;2024-03-06T01:27:04;25.67;;;15.43;;
3257;SDS011;1641;51.306;12.384;2024-03-06T01:29:38;21.67;;;13.77;;
3257;SDS011;1641;51.306;12.384;2024-03-06T01:32:03;21.35;;;14.25;;
3257;SDS011;1641;51.306;12.384;2024-03-06T01:34:29;25.88;;;15.15;;
3257;SDS011;1641;51.306;12.384;2024-03-06T01:36:55;27.23;;;15.60;;
3257;SDS011;1641;51.306;12.384;2024-03-06T01:39:21;25.02;;;15.35;;
3257;SDS011;1641;51.306;12.384;2024-03-06T01:41:46;30.33;;;14.02;;
3257;SDS011;1641;51.306;12.384;2024-03-06T01:44:13;28.25;;;14.82;;
3257;SDS011;1641;51.306;12.384;2024-03-06T01:46:39;24.02;;;16.17;;
3257;SDS011;1641;51.306;12.384;2024-03-06T01:49:08;30.73;;;16.05;;
3257;SDS011;1641;51.306;12.384;2024-03-06T01:51:34;25.20;;;14.82;;
3257;SDS011;1641;51.306;12.384;2024-03-06T01:54:01;27.73;;;15.80;;
3257;SDS011;1641;51.306;12.384;2024-03-06T01:56:35;24.73;;;14.32;;
3257;SDS011;1641;51.306;12.384;2024-03-06T01:59:03;22.85;;;14.65;;
3257;SDS011;1641;51.306;12.384;2024-03-06T02:01:41;28.80;;;15.15;;
3257;SDS011;1641;51.306;12.384;2024-03-06T02:04:09;27.60;;;16.55;;
3257;SDS011;1641;51.306;12.384;2024-03-06T02:06:40;26.73;;;15.77;;
3257;SDS011;1641;51.306;12.384;2024-03-06T02:09:05;29.02;;;16.85;;
3257;SDS011;1641;51.306;12.384;2024-03-06T02:11:32;29.23;;;16.42;;
3257;SDS011;1641;51.306;12.384;2024-03-06T02:14:00;25.52;;;15.88;;
3257;SDS011;1641;51.306;12.384;2024-03-06T02:16:26;25.45;;;14.98;;
3257;SDS011;1641;51.306;12.384;2024-03-06T02:18:52;26.20;;;15.40;;
3257;SDS011;1641;51.306;12.384;2024-03-06T02:21:21;31.10;;;15.98;;
3257;SDS011;1641;51.306;12.384;2024-03-06T02:23:48;29.52;;;17.08;;
3257;SDS011;1641;51.306;12.384;2024-03-06T02:26:18;27.27;;;17.55;;
3257;SDS011;1641;51.306;12.384;2024-03-06T02:28:47;29.42;;;17.45;;
3257;SDS011;1641;51.306;12.384;2024-03-06T02:31:16;28.13;;;18.02;;
3257;SDS011;1641;51.306;12.384;2024-03-06T02:33:43;28.23;;;17.83;;
3257;SDS011;1641;51.306;12.384;2024-03-06T02:36:09;39.92;;;19.55;;
3257;SDS011;1641;51.306;12.384;2024-03-06T02:38:45;27.83;;;14.40;;
3257;SDS011;1641;51.306;12.384;2024-03-06T02:41:11;36.63;;;18.10;;
3257;SDS011;1641;51.306;12.384;2024-03-06T02:43:38;33.95;;;17.75;;
3257;SDS011;1641;51.306;12.384;2024-03-06T02:46:04;29.60;;;17.52;;
3257;SDS011;1641;51.306;12.384;2024-03-06T02:48:30;33.72;;;18.67;;
3257;SDS011;1641;51.306;12.384;2024-03-06T02:50:55;29.52;;;18.55;;
3257;SDS011;1641;51.306;12.384;2024-03-06T02:53:21;30.52;;;17.88;;
3257;SDS011;1641;51.306;12.384;2024-03-06T02:55:47;38.47;;;20.30;;
3257;SDS011;1641;51.306;12.384;2024-03-06T02:58:12;33.65;;;19.80;;
3257;SDS011;1641;51.306;12.384;2024-03-06T03:00:39;29.33;;;19.63;;
3257;SDS011;1641;51.306;12.384;2024-03-06T03:03:05;35.65;;;20.20;;
3257;SDS011;1641;51.306;12.384;2024-03-06T03:05:31;30.42;;;19.73;;
3257;SDS011;1641;51.306;12.384;2024-03-06T03:07:58;31.10;;;19.58;;
3257;SDS011;1641;51.306;12.384;2024-03-06T03:10:24;35.22;;;21.05;;
3257;SDS011;1641;51.306;12.384;2024-03-06T03:12:49;41.17;;;21.20;;
3257;SDS011;1641;51.306;12.384;2024-03-06T03:15:15;32.03;;;18.80;;
3257;SDS011;1641;51.306;12.384;2024-03-06T03:17:40;40.03;;;19.40;;
3257;SDS011;1641;51.306;12.384;2024-03-06T03:20:06;30.35;;;20.30;;
3257;SDS011;1641;51.306;12.384;2024-03-06T03:22:41;33.55;;;19.38;;
3257;SDS011;1641;51.306;12.384;2024-03-06T03:25:07;37.38;;;19.95;;
3257;SDS011;1641;51.306;12.384;2024-03-06T03:27:33;41.08;;;21.05;;
3257;SDS011;1641;51.306;12.384;2024-03-06T03:29:58;38.65;;;22.05;;
3257;SDS011;1641;51.306;12.384;2024-03-06T03:32:24;35.70;;;20.48;;
3257;SDS011;1641;51.306;12.384;2024-03-06T03:34:49;37.08;;;21.13;;
3257;SDS011;1641;51.306;12.384;2024-03-06T03:37:14;39.85;;;21.70;;
3257;SDS011;1641;51.306;12.384;2024-03-06T03:39:39;40.45;;;21.80;;
3257;SDS011;1641;51.306;12.384;2024-03-06T03:42:05;46.83;;;21.67;;
3257;SDS011;1641;51.306;12.384;2024-03-06T03:44:31;42.05;;;21.50;;
3257;SDS011;1641;51.306;12.384;2024-03-06T03:46:56;34.60;;;21.38;;
3257;SDS011;1641;51.306;12.384;2024-03-06T03:49:21;36.72;;;21.00;;
3257;SDS011;1641;51.306;12.384;2024-03-06T03:51:47;43.15;;;21.65;;
3257;SDS011;1641;51.306;12.384;2024-03-06T03:54:12;40.85;;;22.75;;
3257;SDS011;1641;51.306;12.384;2024-03-06T03:56:37;38.28;;;21.50;;
3257;SDS011;1641;51.306;12.384;2024-03-06T03:59:03;40.17;;;23.13;;
3257;SDS011;1641;51.306;12.384;2024-03-06T04:01:28;41.15;;;22.52;;
3257;SDS011;1641;51.306;12.384;2024-03-06T04:03:53;39.55;;;23.50;;
3257;SDS011;1641;51.306;12.384;2024-03-06T04:06:18;39.20;;;23.75;;
3257;SDS011;1641;51.306;12.384;2024-03-06T04:08:44;38.85;;;22.30;;
3257;SDS011;1641;51.306;12.384;2024-03-06T04:11:09;39.13;;;22.23;;
3257;SDS011;1641;51.306;12.384;2024-03-06T04:13:36;45.70;;;23.42;;
3257;SDS011;1641;51.306;12.384;2024-03-06T04:16:02;35.35;;;21.30;;
3257;SDS011;1641;51.306;12.384;2024-03-06T04:18:27;42.60;;;22.30;;
3257;SDS011;1641;51.306;12.384;2024-03-06T04:20:53;44.42;;;22.45;;
3257;SDS011;1641;51.306;12.384;2024-03-06T04:23:19;42.80;;;22.75;;
3257;SDS011;1641;51.306;12.384;2024-03-06T04:25:44;39.13;;;22.85;;
3257;SDS011;1641;51.306;12.384;2024-03-06T04:28:09;36.30;;;21.73;;
3257;SDS011;1641;51.306;12.384;2024-03-06T04:30:35;42.03;;;22.67;;
3257;SDS011;1641;51.306;12.384;2024-03-06T04:33:00;39.05;;;22.17;;
3257;SDS011;1641;51.306;12.384;2024-03-06T04:35:26;43.67;;;23.67;;
3257;SDS011;1641;51.306;12.384;2024-03-06T04:37:51;43.42;;;21.38;;
3257;SDS011;1641;51.306;12.384;2024-03-06T04:40:16;40.72;;;23.85;;
3257;SDS011;1641;51.306;12.384;2024-03-06T04:42:45;47.20;;;23.80;;
3257;SDS011;1641;51.306;12.384;2024-03-06T04:45:11;41.15;;;22.48;;
3257;SDS011;1641;51.306;12.384;2024-03-06T04:47:39;48.58;;;23.52;;
3257;SDS011;1641;51.306;12.384;2024-03-06T04:50:08;41.40;;;21.60;;
3257;SDS011;1641;51.306;12.384;2024-03-06T04:52:35;46.20;;;25.67;;
3257;SDS011;1641;51.306;12.384;2024-03-06T04:55:00;43.90;;;22.77;;
3257;SDS011;1641;51.306;12.384;2024-03-06T04:57:25;46.40;;;24.63;;
3257;SDS011;1641;51.306;12.384;2024-03-06T04:59:51;45.53;;;24.77;;
3257;SDS011;1641;51.306;12.384;2024-03-06T05:02:17;52.78;;;28.13;;
3257;SDS011;1641;51.306;12.384;2024-03-06T05:04:42;44.70;;;25.48;;
3257;SDS011;1641;51.306;12.384;2024-03-06T05:07:08;38.58;;;21.40;;
3257;SDS011;1641;51.306;12.384;2024-03-06T05:09:33;46.33;;;23.85;;
3257;SDS011;1641;51.306;12.384;2024-03-06T05:12:00;55.13;;;23.95;;
3257;SDS011;1641;51.306;12.384;2024-03-06T05:14:25;49.50;;;24.90;;
3257;SDS011;1641;51.306;12.384;2024-03-06T05:16:51;45.63;;;24.10;;
3257;SDS011;1641;51.306;12.384;2024-03-06T05:19:16;50.83;;;24.38;;
3257;SDS011;1641;51.306;12.384;2024-03-06T05:21:41;46.40;;;24.40;;
3257;SDS011;1641;51.306;12.384;2024-03-06T05:24:06;52.85;;;25.02;;
3257;SDS011;1641;51.306;12.384;2024-03-06T05:26:32;55.65;;;27.50;;
3257;SDS011;1641;51.306;12.384;2024-03-06T05:28:58;52.30;;;24.33;;
3257;SDS011;1641;51.306;12.384;2024-03-06T05:31:23;48.53;;;26.05;;
3257;SDS011;1641;51.306;12.384;2024-03-06T05:33:50;46.53;;;24.88;;
3257;SDS011;1641;51.306;12.384;2024-03-06T05:36:15;46.58;;;25.20;;
3257;SDS011;1641;51.306;12.384;2024-03-06T05:38:41;51.90;;;24.67;;
3257;SDS011;1641;51.306;12.384;2024-03-06T05:41:06;47.08;;;25.38;;
3257;SDS011;1641;51.306;12.384;2024-03-06T05:43:32;50.30;;;25.38;;
3257;SDS011;1641;51.306;12.384;2024-03-06T05:45:57;50.70;;;25.65;;
3257;SDS011;1641;51.306;12.384;2024-03-06T05:48:22;52.13;;;25.33;;
3257;SDS011;1641;51.306;12.384;2024-03-06T05:50:49;46.83;;;25.98;;
3257;SDS011;1641;51.306;12.384;2024-03-06T05:53:14;51.60;;;24.80;;
3257;SDS011;1641;51.306;12.384;2024-03-06T05:55:39;46.42;;;26.80;;
3257;SDS011;1641;51.306;12.384;2024-03-06T05:58:06;49.13;;;25.92;;
3257;SDS011;1641;51.306;12.384;2024-03-06T06:00:31;41.83;;;25.08;;
3257;SDS011;1641;51.306;12.384;2024-03-06T06:02:56;51.38;;;26.95;;
3257;SDS011;1641;51.306;12.384;2024-03-06T06:05:21;51.35;;;26.58;;
3257;SDS011;1641;51.306;12.384;2024-03-06T06:07:48;49.20;;;25.60;;
3257;SDS011;1641;51.306;12.384;2024-03-06T06:10:13;47.75;;;25.73;;
3257;SDS011;1641;51.306;12.384;2024-03-06T06:12:39;51.90;;;26.67;;
3257;SDS011;1641;51.306;12.384;2024-03-06T06:15:04;53.35;;;27.35;;
3257;SDS011;1641;51.306;12.384;2024-03-06T06:17:33;55.63;;;26.48;;
3257;SDS011;1641;51.306;12.384;2024-03-06T06:19:59;51.85;;;27.10;;
3257;SDS011;1641;51.306;12.384;2024-03-06T06:22:27;52.47;;;25.85;;
3257;SDS011;1641;51.306;12.384;2024-03-06T06:24:52;57.75;;;25.83;;
3257;SDS011;1641;51.306;12.384;2024-03-06T06:27:20;50.90;;;23.55;;
3257;SDS011;1641;51.306;12.384;2024-03-06T06:29:45;56.38;;;26.02;;
3257;SDS011;1641;51.306;12.384;2024-03-06T06:32:10;53.22;;;25.20;;
3257;SDS011;1641;51.306;12.384;2024-03-06T06:34:35;50.40;;;27.58;;
3257;SDS011;1641;51.306;12.384;2024-03-06T06:37:01;50.28;;;23.75;;
3257;SDS011;1641;51.306;12.384;2024-03-06T06:39:26;43.50;;;24.83;;
3257;SDS011;1641;51.306;12.384;2024-03-06T06:41:55;49.63;;;22.48;;
3257;SDS011;1641;51.306;12.384;2024-03-06T06:44:20;54.60;;;26.58;;
3257;SDS011;1641;51.306;12.384;2024-03-06T06:46:54;45.33;;;24.05;;
3257;SDS011;1641;51.306;12.384;2024-03-06T06:49:19;21.25;;;12.63;;
3257;SDS011;1641;51.306;12.384;2024-03-06T06:51:45;26.63;;;15.13;;
3257;SDS011;1641;51.306;12.384;2024-03-06T06:54:10;41.22;;;20.98;;
3257;SDS011;1641;51.306;12.384;2024-03-06T06:56:35;43.08;;;23.25;;
3257;SDS011;1641;51.306;12.384;2024-03-06T06:59:01;47.50;;;25.77;;
3257;SDS011;1641;51.306;12.384;2024-03-06T07:01:29;47.03;;;23.20;;
3257;SDS011;1641;51.306;12.384;2024-03-06T07:03:54;46.92;;;23.05;;
3257;SDS011;1641;51.306;12.384;2024-03-06T07:06:21;42.42;;;21.90;;
3257;SDS011;1641;51.306;12.384;2024-03-06T07:08:46;44.50;;;24.00;;
3257;SDS011;1641;51.306;12.384;2024-03-06T07:11:12;41.47;;;21.75;;
3257;SDS011;1641;51.306;12.384;2024-03-06T07:13:45;38.30;;;22.58;;
3257;SDS011;1641;51.306;12.384;2024-03-06T07:16:10;36.53;;;21.42;;
3257;SDS011;1641;51.306;12.384;2024-03-06T07:18:36;36.13;;;20.63;;
3257;SDS011;1641;51.306;12.384;2024-03-06T07:21:14;34.85;;;20.40;;
3257;SDS011;1641;51.306;12.384;2024-03-06T07:23:45;34.85;;;19.52;;
3257;SDS011;1641;51.306;12.384;2024-03-06T07:26:20;30.08;;;17.23;;
3257;SDS011;1641;51.306;12.384;2024-03-06T07:28:48;35.78;;;19.27;;
3257;SDS011;1641;51.306;12.384;2024-03-06T07:31:21;39.42;;;17.98;;
3257;SDS011;1641;51.306;12.384;2024-03-06T07:33:58;38.55;;;18.88;;
3257;SDS011;1641;51.306;12.384;2024-03-06T07:36:27;38.88;;;20.40;;
3257;SDS011;1641;51.306;12.384;2024-03-06T07:39:04;32.67;;;19.48;;
3257;SDS011;1641;51.306;12.384;2024-03-06T07:41:32;32.75;;;18.92;;
3257;SDS011;1641;51.306;12.384;2024-03-06T07:43:58;29.33;;;17.98;;
3257;SDS011;1641;51.306;12.384;2024-03-06T07:46:37;27.85;;;18.52;;
3257;SDS011;1641;51.306;12.384;2024-03-06T07:49:03;33.33;;;19.98;;
3257;SDS011;1641;51.306;12.384;2024-03-06T07:51:36;33.03;;;19.38;;
3257;SDS011;1641;51.306;12.384;2024-03-06T07:54:05;35.35;;;19.80;;
3257;SDS011;1641;51.306;12.384;2024-03-06T07:56:30;30.55;;;17.77;;
3257;SDS011;1641;51.306;12.384;2024-03-06T07:58:55;28.85;;;16.85;;
3257;SDS011;1641;51.306;12.384;2024-03-06T08:01:22;33.65;;;18.65;;
3257;SDS011;1641;51.306;12.384;2024-03-06T08:03:48;31.88;;;20.08;;
3257;SDS011;1641;51.306;12.384;2024-03-06T08:09:07;32.97;;;19.63;;
3257;SDS011;1641;51.306;12.384;2024-03-06T08:11:51;29.38;;;14.80;;
3257;SDS011;1641;51.306;12.384;2024-03-06T08:14:19;39.95;;;19.45;;
3257;SDS011;1641;51.306;12.384;2024-03-06T08:16:47;34.53;;;20.83;;
3257;SDS011;1641;51.306;12.384;2024-03-06T08:19:16;40.38;;;18.40;;
3257;SDS011;1641;51.306;12.384;2024-03-06T08:21:43;35.22;;;19.27;;
3257;SDS011;1641;51.306;12.384;2024-03-06T08:24:09;36.80;;;20.90;;
3257;SDS011;1641;51.306;12.384;2024-03-06T08:26:35;40.20;;;21.73;;
3257;SDS011;1641;51.306;12.384;2024-03-06T08:29:03;35.78;;;20.08;;
3257;SDS011;1641;51.306;12.384;2024-03-06T08:34:16;38.65;;;21.13;;
3257;SDS011;1641;51.306;12.384;2024-03-06T08:36:46;38.10;;;20.30;;
3257;SDS011;1641;51.306;12.384;2024-03-06T08:39:30;38.03;;;20.67;;
3257;SDS011;1641;51.306;12.384;2024-03-06T08:44:50;43.20;;;22.23;;
3257;SDS011;1641;51.306;12.384;2024-03-06T08:47:15;33.88;;;19.35;;
3257;SDS011;1641;51.306;12.384;2024-03-06T08:49:41;39.28;;;23.90;;
3257;SDS011;1641;51.306;12.384;2024-03-06T08:52:15;39.90;;;20.63;;
3257;SDS011;1641;51.306;12.384;2024-03-06T08:54:40;39.38;;;20.15;;
3257;SDS011;1641;51.306;12.384;2024-03-06T08:59:56;42.40;;;24.73;;
3257;SDS011;1641;51.306;12.384;2024-03-06T09:02:33;36.70;;;21.45;;
3257;SDS011;1641;51.306;12.384;2024-03-06T09:05:08;36.28;;;17.08;;
3257;SDS011;1641;51.306;12.384;2024-03-06T09:07:44;37.08;;;22.90;;
3257;SDS011;1641;51.306;12.384;2024-03-06T09:10:09;38.60;;;25.27;;
3257;SDS011;1641;51.306;12.384;2024-03-06T09:12:39;36.67;;;20.23;;
3257;SDS011;1641;51.306;12.384;2024-03-06T09:15:18;44.45;;;24.80;;
3257;SDS011;1641;51.306;12.384;2024-03-06T09:17:44;49.95;;;23.20;;
3257;SDS011;1641;51.306;12.384;2024-03-06T09:20:11;34.78;;;18.63;;
3257;SDS011;1641;51.306;12.384;2024-03-06T09:22:40;28.45;;;15.88;;
3257;SDS011;1641;51.306;12.384;2024-03-06T09:25:06;37.13;;;19.42;;
3257;SDS011;1641;51.306;12.384;2024-03-06T09:27:32;38.35;;;19.73;;
3257;SDS011;1641;51.306;12.384;2024-03-06T09:32:42;38.25;;;20.63;;
3257;SDS011;1641;51.306;12.384;2024-03-06T09:35:09;50.38;;;27.73;;
3257;SDS011;1641;51.306;12.384;2024-03-06T09:37:34;48.97;;;25.73;;
3257;SDS011;1641;51.306;12.384;2024-03-06T09:40:06;38.42;;;23.33;;
3257;SDS011;1641;51.306;12.384;2024-03-06T09:42:32;47.85;;;24.73;;
3257;SDS011;1641;51.306;12.384;2024-03-06T09:47:52;48.25;;;26.80;;
3257;SDS011;1641;51.306;12.384;2024-03-06T09:50:26;43.67;;;24.52;;
3257;SDS011;1641;51.306;12.384;2024-03-06T09:52:57;39.50;;;21.40;;
3257;SDS011;1641;51.306;12.384;2024-03-06T09:55:24;42.63;;;24.15;;
3257;SDS011;1641;51.306;12.384;2024-03-06T09:57:50;41.83;;;23.25;;
3257;SDS011;1641;51.306;12.384;2024-03-06T10:00:16;45.38;;;24.70;;
3257;SDS011;1641;51.306;12.384;2024-03-06T10:02:58;46.67;;;25.02;;
3257;SDS011;1641;51.306;12.384;2024-03-06T10:05:27;42.45;;;21.67;;
3257;SDS011;1641;51.306;12.384;2024-03-06T10:07:56;46.15;;;25.63;;
3257;SDS011;1641;51.306;12.384;2024-03-06T10:10:22;44.92;;;25.27;;
3257;SDS011;1641;51.306;12.384;2024-03-06T10:12:48;47.75;;;23.85;;
3257;SDS011;1641;51.306;12.384;2024-03-06T10:15:23;44.10;;;25.52;;
3257;SDS011;1641;51.306;12.384;2024-03-06T10:17:52;41.33;;;22.50;;
3257;SDS011;1641;51.306;12.384;2024-03-06T10:22:50;51.83;;;26.63;;
3257;SDS011;1641;51.306;12.384;2024-03-06T10:25:20;47.63;;;26.48;;
3257;SDS011;1641;51.306;12.384;2024-03-06T10:28:05;48.15;;;24.67;;
3257;SDS011;1641;51.306;12.384;2024-03-06T10:30:37;42.20;;;21.90;;
3257;SDS011;1641;51.306;12.384;2024-03-06T10:33:07;54.22;;;26.98;;
3257;SDS011;1641;51.306;12.384;2024-03-06T10:35:33;41.92;;;23.50;;
3257;SDS011;1641;51.306;12.384;2024-03-06T10:38:03;41.42;;;21.23;;
3257;SDS011;1641;51.306;12.384;2024-03-06T10:40:32;42.67;;;24.50;;
3257;SDS011;1641;51.306;12.384;2024-03-06T10:43:00;35.05;;;19.25;;
3257;SDS011;1641;51.306;12.384;2024-03-06T10:48:15;48.13;;;26.75;;
3257;SDS011;1641;51.306;12.384;2024-03-06T10:50:51;48.42;;;23.80;;
3257;SDS011;1641;51.306;12.384;2024-03-06T10:53:29;49.90;;;24.10;;
3257;SDS011;1641;51.306;12.384;2024-03-06T10:55:55;43.10;;;20.67;;
3257;SDS011;1641;51.306;12.384;2024-03-06T10:58:22;35.20;;;18.92;;
3257;SDS011;1641;51.306;12.384;2024-03-06T11:00:58;47.47;;;23.00;;
3257;SDS011;1641;51.306;12.384;2024-03-06T11:03:26;32.97;;;16.13;;
3257;SDS011;1641;51.306;12.384;2024-03-06T11:05:52;41.33;;;19.42;;
3257;SDS011;1641;51.306;12.384;2024-03-06T11:08:20;33.95;;;16.63;;
3257;SDS011;1641;51.306;12.384;2024-03-06T11:10:46;41.17;;;24.45;;
3257;SDS011;1641;51.306;12.384;2024-03-06T11:15:46;42.38;;;22.50;;
3257;SDS011;1641;51.306;12.384;2024-03-06T11:21:27;44.70;;;23.63;;
3257;SDS011;1641;51.306;12.384;2024-03-06T11:26:56;45.55;;;23.13;;
3257;SDS011;1641;51.306;12.384;2024-03-06T11:29:29;46.53;;;23.20;;
3257;SDS011;1641;51.306;12.384;2024-03-06T11:32:57;38.80;;;21.98;;
3257;SDS011;1641;51.306;12.384;2024-03-06T11:35:40;41.17;;;23.60;;
3257;SDS011;1641;51.306;12.384;2024-03-06T11:38:08;36.55;;;19.15;;
3257;SDS011;1641;51.306;12.384;2024-03-06T11:40:42;34.75;;;20.35;;
3257;SDS011;1641;51.306;12.384;2024-03-06T11:43:23;37.13;;;18.15;;
3257;SDS011;1641;51.306;12.384;2024-03-06T11:46:07;48.08;;;26.25;;
3257;SDS011;1641;51.306;12.384;2024-03-06T11:48:33;32.47;;;19.05;;
3257;SDS011;1641;51.306;12.384;2024-03-06T11:50:59;29.25;;;18.02;;
3257;SDS011;1641;51.306;12.384;2024-03-06T11:53:37;29.65;;;16.30;;
3257;SDS011;1641;51.306;12.384;2024-03-06T11:56:07;30.10;;;16.08;;
3257;SDS011;1641;51.306;12.384;2024-03-06T11:58:36;23.95;;;11.63;;
3257;SDS011;1641;51.306;12.384;2024-03-06T12:01:07;28.00;;;18.10;;
3257;SDS011;1641;51.306;12.384;2024-03-06T12:03:33;35.03;;;18.38;;
3257;SDS011;1641;51.306;12.384;2024-03-06T12:05:59;40.38;;;19.35;;
3257;SDS011;1641;51.306;12.384;2024-03-06T12:08:25;32.22;;;17.50;;
3257;SDS011;1641;51.306;12.384;2024-03-06T12:10:50;33.05;;;19.33;;
3257;SDS011;1641;51.306;12.384;2024-03-06T12:13:16;34.58;;;18.25;;
3257;SDS011;1641;51.306;12.384;2024-03-06T12:15:42;26.83;;;14.40;;
3257;SDS011;1641;51.306;12.384;2024-03-06T12:18:10;37.38;;;21.70;;
3257;SDS011;1641;51.306;12.384;2024-03-06T12:20:39;36.58;;;21.30;;
3257;SDS011;1641;51.306;12.384;2024-03-06T12:23:06;36.03;;;17.90;;
3257;SDS011;1641;51.306;12.384;2024-03-06T12:25:32;40.60;;;23.65;;
3257;SDS011;1641;51.306;12.384;2024-03-06T12:28:05;32.90;;;16.25;;
3257;SDS011;1641;51.306;12.384;2024-03-06T12:30:38;40.28;;;18.60;;
3257;SDS011;1641;51.306;12.384;2024-03-06T12:33:06;21.83;;;11.95;;
3257;SDS011;1641;51.306;12.384;2024-03-06T12:35:31;31.15;;;18.13;;
3257;SDS011;1641;51.306;12.384;2024-03-06T12:37:59;35.92;;;15.52;;
3257;SDS011;1641;51.306;12.384;2024-03-06T12:40:24;28.48;;;18.05;;
3257;SDS011;1641;51.306;12.384;2024-03-06T12:42:50;38.97;;;20.25;;
3257;SDS011;1641;51.306;12.384;2024-03-06T12:45:17;29.13;;;19.17;;
3257;SDS011;1641;51.306;12.384;2024-03-06T12:47:45;23.80;;;13.20;;
3257;SDS011;1641;51.306;12.384;2024-03-06T12:50:13;31.50;;;18.83;;
3257;SDS011;1641;51.306;12.384;2024-03-06T12:52:40;29.75;;;17.80;;
3257;SDS011;1641;51.306;12.384;2024-03-06T12:55:06;22.85;;;13.93;;
3257;SDS011;1641;51.306;12.384;2024-03-06T12:57:32;28.17;;;17.50;;
3257;SDS011;1641;51.306;12.384;2024-03-06T12:59:58;30.40;;;18.75;;
3257;SDS011;1641;51.306;12.384;2024-03-06T13:02:24;28.73;;;18.83;;
3257;SDS011;1641;51.306;12.384;2024-03-06T13:04:50;22.70;;;13.75;;
3257;SDS011;1641;51.306;12.384;2024-03-06T13:07:19;35.05;;;20.05;;
3257;SDS011;1641;51.306;12.384;2024-03-06T13:09:45;24.75;;;14.30;;
3257;SDS011;1641;51.306;12.384;2024-03-06T13:12:10;34.63;;;19.60;;
3257;SDS011;1641;51.306;12.384;2024-03-06T13:14:35;30.98;;;18.15;;
3257;SDS011;1641;51.306;12.384;2024-03-06T13:17:01;29.05;;;17.10;;
3257;SDS011;1641;51.306;12.384;2024-03-06T13:19:27;33.45;;;17.98;;
3257;SDS011;1641;51.306;12.384;2024-03-06T13:21:53;32.63;;;18.40;;
3257;SDS011;1641;51.306;12.384;2024-03-06T13:24:19;27.70;;;17.55;;
3257;SDS011;1641;51.306;12.384;2024-03-06T13:26:50;30.67;;;17.08;;
3257;SDS011;1641;51.306;12.384;2024-03-06T13:29:15;32.17;;;17.83;;
3257;SDS011;1641;51.306;12.384;2024-03-06T13:31:41;22.63;;;12.75;;
3257;SDS011;1641;51.306;12.384;2024-03-06T13:34:06;20.55;;;10.75;;
3257;SDS011;1641;51.306;12.384;2024-03-06T13:36:32;29.42;;;18.48;;
3257;SDS011;1641;51.306;12.384;2024-03-06T13:38:57;17.55;;;10.07;;
3257;SDS011;1641;51.306;12.384;2024-03-06T13:41:23;23.85;;;13.90;;
3257;SDS011;1641;51.306;12.384;2024-03-06T13:43:48;30.52;;;17.45;;
3257;SDS011;1641;51.306;12.384;2024-03-06T13:46:13;29.25;;;15.95;;
3257;SDS011;1641;51.306;12.384;2024-03-06T13:48:39;27.35;;;16.25;;
3257;SDS011;1641;51.306;12.384;2024-03-06T13:51:04;25.70;;;15.95;;
3257;SDS011;1641;51.306;12.384;2024-03-06T13:53:30;33.45;;;16.30;;
3257;SDS011;1641;51.306;12.384;2024-03-06T13:55:56;29.15;;;17.48;;
3257;SDS011;1641;51.306;12.384;2024-03-06T13:58:21;27.55;;;14.77;;
3257;SDS011;1641;51.306;12.384;2024-03-06T14:00:47;23.98;;;12.75;;
3257;SDS011;1641;51.306;12.384;2024-03-06T14:03:12;29.30;;;17.88;;
3257;SDS011;1641;51.306;12.384;2024-03-06T14:05:38;23.30;;;15.32;;
3257;SDS011;1641;51.306;12.384;2024-03-06T14:08:04;26.08;;;16.38;;
3257;SDS011;1641;51.306;12.384;2024-03-06T14:10:29;28.92;;;14.98;;
3257;SDS011;1641;51.306;12.384;2024-03-06T14:12:58;24.33;;;14.65;;
3257;SDS011;1641;51.306;12.384;2024-03-06T14:15:27;17.55;;;10.30;;
3257;SDS011;1641;51.306;12.384;2024-03-06T14:17:52;21.73;;;12.95;;
3257;SDS011;1641;51.306;12.384;2024-03-06T14:20:22;22.73;;;13.88;;
3257;SDS011;1641;51.306;12.384;2024-03-06T14:22:48;20.38;;;12.77;;
3257;SDS011;1641;51.306;12.384;2024-03-06T14:25:14;21.92;;;13.60;;
3257;SDS011;1641;51.306;12.384;2024-03-06T14:27:43;15.15;;;9.85;;
3257;SDS011;1641;51.306;12.384;2024-03-06T14:30:08;11.27;;;6.75;;
3257;SDS011;1641;51.306;12.384;2024-03-06T14:32:36;13.80;;;9.20;;
3257;SDS011;1641;51.306;12.384;2024-03-06T14:35:08;12.45;;;9.10;;
3257;SDS011;1641;51.306;12.384;2024-03-06T14:40:33;13.10;;;8.95;;
3257;SDS011;1641;51.306;12.384;2024-03-06T14:42:59;16.02;;;9.40;;
3257;SDS011;1641;51.306;12.384;2024-03-06T14:45:24;14.73;;;9.23;;
3257;SDS011;1641;51.306;12.384;2024-03-06T14:47:49;13.93;;;9.38;;
3257;SDS011;1641;51.306;12.384;2024-03-06T14:50:15;22.27;;;10.68;;
3257;SDS011;1641;51.306;12.384;2024-03-06T14:52:40;13.25;;;9.10;;
3257;SDS011;1641;51.306;12.384;2024-03-06T14:55:08;15.52;;;9.15;;
3257;SDS011;1641;51.306;12.384;2024-03-06T14:57:34;14.77;;;9.60;;
3257;SDS011;1641;51.306;12.384;2024-03-06T14:59:59;17.90;;;10.77;;
3257;SDS011;1641;51.306;12.384;2024-03-06T15:02:25;13.38;;;8.88;;
3257;SDS011;1641;51.306;12.384;2024-03-06T15:04:50;14.50;;;7.68;;
3257;SDS011;1641;51.306;12.384;2024-03-06T15:07:15;11.68;;;6.90;;
3257;SDS011;1641;51.306;12.384;2024-03-06T15:09:43;10.60;;;7.47;;
3257;SDS011;1641;51.306;12.384;2024-03-06T15:12:12;10.77;;;6.28;;